Time;durP1;ratioP1;P1;durP2;ratioP2;P2;SDS_P1;SDS_P2;PMS_P1;PMS_P2;Temp;Humidity;BMP_temperature;BMP_pressure;BME280_temperature;BME280_humidity;BME280_pressure;Samples;Min_cycle;Max_cycle;Signal;HPM_P1;HPM_P2
2023/08/25 00:00:56;;;;;;;10.90;9.80;;;20.10;99.90;;;;;;6246784;23;20039;-44
2023/08/25 00:03:22;;;;;;;11.27;9.63;;;20.30;99.90;;;;;;6247072;23;20035;-44
2023/08/25 00:05:52;;;;;;;11.77;10.52;;;20.10;99.90;;;;;;6243933;23;20016;-45
2023/08/25 00:08:17;;;;;;;12.27;9.45;;;19.80;99.90;;;;;;6246117;23;20012;-44
2023/08/25 00:10:43;;;;;;;11.75;10.43;;;20.10;99.90;;;;;;6246676;23;20066;-43
2023/08/25 00:13:09;;;;;;;11.23;9.93;;;19.80;99.90;;;;;;6219514;23;20447;-44
2023/08/25 00:15:34;;;;;;;12.00;10.80;;;19.80;99.90;;;;;;6246637;23;20016;-44
2023/08/25 00:18:00;;;;;;;12.23;10.68;;;19.70;99.90;;;;;;6244574;23;20052;-48
2023/08/25 00:20:27;;;;;;;12.15;11.05;;;;;;;;;;6244614;23;20040;-45
2023/08/25 00:22:53;;;;;;;11.38;10.27;;;19.60;99.90;;;;;;6244099;23;20016;-43
2023/08/25 00:25:18;;;;;;;11.68;10.57;;;19.60;99.90;;;;;;6244546;23;20024;-44
2023/08/25 00:27:44;;;;;;;12.02;10.93;;;19.60;99.90;;;;;;6245501;23;20013;-48
2023/08/25 00:30:11;;;;;;;13.27;11.15;;;19.50;99.90;;;;;;6244080;23;20016;-43
2023/08/25 00:32:40;;;;;;;13.52;12.07;;;19.50;99.90;;;;;;6244086;23;20009;-48
2023/08/25 00:35:07;;;;;;;14.65;13.25;;;19.50;99.90;;;;;;6244233;23;20017;-45
2023/08/25 00:37:32;;;;;;;13.93;12.63;;;19.40;99.90;;;;;;6245503;23;20012;-44
2023/08/25 00:39:58;;;;;;;14.77;13.50;;;19.40;99.90;;;;;;6246825;23;20042;-43
2023/08/25 00:42:24;;;;;;;14.23;11.70;;;19.40;99.90;;;;;;6218074;23;20024;-44
2023/08/25 00:44:50;;;;;;;14.07;12.77;;;19.40;99.90;;;;;;6246609;23;20137;-44
2023/08/25 00:47:16;;;;;;;15.15;13.75;;;19.30;99.90;;;;;;6245399;23;20051;-44
2023/08/25 00:49:42;;;;;;;14.40;13.13;;;19.30;99.90;;;;;;6246086;23;20110;-46
2023/08/25 00:52:09;;;;;;;14.38;13.15;;;19.30;99.90;;;;;;6245684;23;20048;-46
2023/08/25 00:54:35;;;;;;;15.85;13.98;;;19.30;99.90;;;;;;6247287;23;20012;-45
2023/08/25 00:57:02;;;;;;;15.65;14.18;;;19.30;99.90;;;;;;6246522;23;20012;-44
2023/08/25 00:59:29;;;;;;;15.35;14.02;;;19.20;99.90;;;;;;6247044;23;20321;-44
2023/08/25 01:01:56;;;;;;;15.70;14.18;;;19.30;99.90;;;;;;6219635;23;20027;-47
2023/08/25 01:04:22;;;;;;;14.68;13.32;;;19.20;99.90;;;;;;6219751;23;20076;-45
2023/08/25 01:06:48;;;;;;;14.90;13.50;;;19.20;99.90;;;;;;6246902;23;20012;-45
2023/08/25 01:09:14;;;;;;;16.13;14.55;;;19.10;99.90;;;;;;6245381;23;20455;-45
2023/08/25 01:11:58;;;;;;;14.95;13.65;;;19.10;99.90;;;;;;6246030;23;20012;-46
2023/08/25 01:14:46;;;;;;;15.40;13.90;;;19.10;99.90;;;;;;6246838;23;20074;-43
2023/08/25 01:17:30;;;;;;;16.33;14.75;;;19.10;99.90;;;;;;6246623;23;20020;-44
2023/08/25 01:20:06;;;;;;;16.73;15.13;;;19.10;99.90;;;;;;6250675;23;20074;-45
2023/08/25 01:22:52;;;;;;;16.63;15.13;;;19.10;99.90;;;;;;6246035;23;20019;-44
2023/08/25 01:25:20;;;;;;;17.50;15.70;;;19.10;99.90;;;;;;6246589;23;20436;-44
2023/08/25 01:27:49;;;;;;;16.38;14.80;;;19.10;99.90;;;;;;6245469;23;20016;-44
2023/08/25 01:30:14;;;;;;;17.33;15.57;;;19.20;99.90;;;;;;6245551;23;20452;-43
2023/08/25 01:32:40;;;;;;;17.40;15.77;;;19.10;99.90;;;;;;6245150;23;20019;-44
2023/08/25 01:35:06;;;;;;;16.20;14.80;;;19.20;99.90;;;;;;6246138;23;20077;-45
2023/08/25 01:37:38;;;;;;;17.15;15.48;;;19.20;99.90;;;;;;6218451;23;20062;-44
2023/08/25 01:40:11;;;;;;;18.42;16.05;;;19.20;99.90;;;;;;6219413;23;20449;-44
2023/08/25 01:42:39;;;;;;;19.98;15.25;;;19.30;99.90;;;;;;6245574;23;20016;-43
2023/08/25 01:45:06;;;;;;;17.27;15.68;;;19.30;99.90;;;;;;6245721;23;20430;-44
2023/08/25 01:47:34;;;;;;;16.67;14.45;;;19.30;99.90;;;;;;6245748;23;20040;-45
2023/08/25 01:50:00;;;;;;;17.67;15.95;;;19.30;99.90;;;;;;6246196;23;20514;-43
2023/08/25 01:52:26;;;;;;;19.05;17.25;;;19.30;99.90;;;;;;6245576;23;20052;-44
2023/08/25 01:54:52;;;;;;;17.27;15.48;;;19.40;99.90;;;;;;6246116;23;20016;-43
2023/08/25 01:57:18;;;;;;;18.73;16.92;;;19.40;99.90;;;;;;6246016;23;20027;-44
2023/08/25 01:59:43;;;;;;;17.60;15.88;;;19.40;99.90;;;;;;6245975;23;20008;-46
2023/08/25 02:02:09;;;;;;;18.83;17.02;;;19.40;99.90;;;;;;6246305;23;20091;-44
2023/08/25 02:04:35;;;;;;;18.30;16.58;;;19.40;99.90;;;;;;6246420;23;20020;-46
2023/08/25 02:07:01;;;;;;;17.73;16.13;;;19.50;99.90;;;;;;6246055;23;20020;-46
2023/08/25 02:09:26;;;;;;;18.15;16.35;;;19.50;99.90;;;;;;6246298;23;20012;-43
2023/08/25 02:11:52;;;;;;;18.27;16.52;;;19.40;99.90;;;;;;6244423;23;20008;-52
2023/08/25 02:14:18;;;;;;;17.52;16.00;;;19.40;99.90;;;;;;6241092;23;20012;-44
2023/08/25 02:16:43;;;;;;;20.27;18.38;;;19.40;99.90;;;;;;6237942;23;20051;-44
2023/08/25 02:19:09;;;;;;;19.15;17.42;;;19.50;99.90;;;;;;6243236;23;20012;-43
2023/08/25 02:21:35;;;;;;;19.30;17.40;;;19.40;99.90;;;;;;6220600;23;20024;-46
2023/08/25 02:24:00;;;;;;;19.92;18.02;;;19.40;99.90;;;;;;6245245;23;20016;-45
2023/08/25 02:26:26;;;;;;;19.73;17.58;;;19.30;99.90;;;;;;6244398;23;20024;-44
2023/08/25 02:28:52;;;;;;;20.38;18.48;;;19.30;99.90;;;;;;6245290;23;20019;-47
2023/08/25 02:31:18;;;;;;;18.95;17.25;;;19.30;99.90;;;;;;6218055;23;20024;-44
2023/08/25 02:33:45;;;;;;;21.38;19.08;;;19.20;99.90;;;;;;6244971;23;20344;-44
2023/08/25 02:36:11;;;;;;;21.83;18.88;;;19.20;99.90;;;;;;6245264;23;20012;-45
2023/08/25 02:38:36;;;;;;;22.88;20.67;;;19.30;99.90;;;;;;6244387;23;20023;-43
2023/08/25 02:41:02;;;;;;;21.52;19.23;;;19.30;99.90;;;;;;6245238;23;20019;-44
2023/08/25 02:43:28;;;;;;;21.48;19.38;;;19.20;99.90;;;;;;6244911;23;20012;-44
2023/08/25 02:45:53;;;;;;;23.08;20.98;;;19.30;99.90;;;;;;6245255;23;20448;-44
2023/08/25 02:48:19;;;;;;;22.40;20.13;;;19.30;99.90;;;;;;6245139;23;20496;-46
2023/08/25 02:50:44;;;;;;;23.27;21.02;;;19.40;99.90;;;;;;6245580;23;20012;-45
2023/08/25 02:53:10;;;;;;;23.02;20.58;;;19.30;99.90;;;;;;6244927;23;20027;-44
2023/08/25 02:55:37;;;;;;;23.10;20.92;;;19.40;99.90;;;;;;6245298;23;20027;-46
2023/08/25 02:58:03;;;;;;;23.00;20.77;;;19.40;99.90;;;;;;6245847;23;20088;-44
2023/08/25 03:00:29;;;;;;;24.20;21.67;;;19.30;99.90;;;;;;6245717;23;20039;-44
2023/08/25 03:02:54;;;;;;;24.90;22.38;;;19.20;99.90;;;;;;6245804;23;20527;-43
2023/08/25 03:05:24;;;;;;;22.45;20.30;;;19.30;99.90;;;;;;6218624;23;20020;-45
2023/08/25 03:07:53;;;;;;;24.45;22.15;;;19.10;99.90;;;;;;6245832;23;20012;-45
2023/08/25 03:10:18;;;;;;;24.98;22.52;;;19.10;99.90;;;;;;6193039;23;20016;-43
2023/08/25 03:12:44;;;;;;;22.30;19.85;;;19.00;99.90;;;;;;6245370;23;20063;-43
2023/08/25 03:15:10;;;;;;;25.65;22.85;;;19.00;99.90;;;;;;6245712;23;20074;-44
2023/08/25 03:17:36;;;;;;;26.75;23.95;;;19.00;99.90;;;;;;6218918;23;20055;-43
2023/08/25 03:20:02;;;;;;;28.55;25.23;;;18.90;99.90;;;;;;6245808;23;20491;-44
2023/08/25 03:22:28;;;;;;;27.35;24.55;;;18.90;99.90;;;;;;6245692;23;20023;-44
2023/08/25 03:24:54;;;;;;;29.75;26.67;;;18.80;99.90;;;;;;6244733;23;20023;-44
2023/08/25 03:27:19;;;;;;;28.52;25.60;;;18.80;99.90;;;;;;6245215;23;20015;-44
2023/08/25 03:29:45;;;;;;;31.58;28.20;;;18.80;99.90;;;;;;6244926;23;20523;-43
2023/08/25 03:32:11;;;;;;;29.50;26.52;;;18.80;99.90;;;;;;6244603;23;20008;-44
2023/08/25 03:34:37;;;;;;;30.00;26.92;;;18.70;99.90;;;;;;6245193;23;20345;-43
2023/08/25 03:37:03;;;;;;;28.65;25.85;;;18.80;99.90;;;;;;6243018;23;20063;-45
2023/08/25 03:39:29;;;;;;;29.33;26.27;;;18.80;99.90;;;;;;6244793;23;20019;-45
2023/08/25 03:41:55;;;;;;;32.78;29.35;;;18.70;99.90;;;;;;6244575;23;20039;-47
2023/08/25 03:44:20;;;;;;;30.48;27.27;;;18.70;99.90;;;;;;6217598;23;20012;-45
2023/08/25 03:46:46;;;;;;;31.95;28.73;;;18.70;99.90;;;;;;6243994;23;20016;-46
2023/08/25 03:49:12;;;;;;;30.70;27.13;;;18.50;99.90;;;;;;6245543;23;20474;-45
2023/08/25 03:51:38;;;;;;;31.17;27.92;;;18.50;99.90;;;;;;6244637;23;20087;-43
2023/08/25 03:54:06;;;;;;;32.53;29.13;;;18.50;99.90;;;;;;6217626;23;20020;-43
2023/08/25 03:56:32;;;;;;;32.92;29.42;;;18.40;99.90;;;;;;6244961;23;20019;-45
2023/08/25 03:58:57;;;;;;;31.77;28.60;;;18.40;99.90;;;;;;6243268;23;20009;-46
2023/08/25 04:01:23;;;;;;;34.95;30.80;;;18.50;99.90;;;;;;6217886;23;20081;-45
2023/08/25 04:03:49;;;;;;;31.40;27.08;;;18.40;99.90;;;;;;6244822;23;20013;-44
2023/08/25 04:06:14;;;;;;;33.13;29.55;;;18.50;99.90;;;;;;6244653;23;20058;-45
2023/08/25 04:08:40;;;;;;;33.78;30.17;;;18.40;99.90;;;;;;6244873;23;20016;-44
2023/08/25 04:11:06;;;;;;;35.45;31.60;;;18.30;99.90;;;;;;6244934;23;20384;-45
2023/08/25 04:13:32;;;;;;;33.08;29.33;;;18.40;99.90;;;;;;6244039;23;20024;-44
2023/08/25 04:15:58;;;;;;;33.03;29.38;;;18.30;99.90;;;;;;6244789;23;20016;-43
2023/08/25 04:18:25;;;;;;;32.05;28.75;;;18.30;99.90;;;;;;6245184;23;20012;-44
2023/08/25 04:20:51;;;;;;;35.05;31.27;;;18.30;99.90;;;;;;6244369;23;20031;-46
2023/08/25 04:23:17;;;;;;;33.53;30.15;;;18.30;99.90;;;;;;6245866;23;20017;-45
2023/08/25 04:25:43;;;;;;;34.38;30.88;;;18.40;99.90;;;;;;6245088;23;20019;-44
2023/08/25 04:28:09;;;;;;;34.35;30.73;;;18.20;99.90;;;;;;6217337;23;20020;-44
2023/08/25 04:30:35;;;;;;;38.08;33.17;;;18.30;99.90;;;;;;6216943;23;20450;-45
2023/08/25 04:33:00;;;;;;;42.08;35.53;;;18.30;99.90;;;;;;6246023;23;20089;-47
2023/08/25 04:35:26;;;;;;;40.40;35.63;;;18.30;99.90;;;;;;6244959;23;20016;-43
2023/08/25 04:37:52;;;;;;;41.38;35.45;;;18.40;99.90;;;;;;6244992;23;20084;-44
2023/08/25 04:40:18;;;;;;;39.17;34.95;;;18.30;99.90;;;;;;6245274;23;20085;-44
2023/08/25 04:42:44;;;;;;;41.45;35.58;;;18.30;99.90;;;;;;6245349;23;20016;-45
2023/08/25 04:45:13;;;;;;;38.10;34.05;;;18.40;99.90;;;;;;6219452;23;20039;-43
2023/08/25 04:47:39;;;;;;;40.83;36.35;;;18.50;99.90;;;;;;6246056;23;20105;-45
2023/08/25 04:50:07;;;;;;;41.05;36.50;;;18.40;99.90;;;;;;6246291;23;20016;-43
2023/08/25 04:52:34;;;;;;;40.45;35.05;;;18.30;99.90;;;;;;6245188;23;20345;-46
2023/08/25 04:55:02;;;;;;;39.33;32.83;;;18.40;99.90;;;;;;6218511;23;20404;-45
2023/08/25 04:57:30;;;;;;;39.13;34.95;;;18.40;99.90;;;;;;6246079;23;20090;-43
2023/08/25 04:59:56;;;;;;;42.45;36.60;;;18.50;99.90;;;;;;6245767;23;20035;-43
2023/08/25 05:02:23;;;;;;;41.08;36.58;;;18.40;99.90;;;;;;6245700;23;20016;-46
2023/08/25 05:04:48;;;;;;;39.13;34.72;;;18.50;99.90;;;;;;6245486;23;20034;-43
2023/08/25 05:07:14;;;;;;;39.72;34.83;;;18.60;99.90;;;;;;6245896;23;20016;-43
2023/08/25 05:09:40;;;;;;;39.90;34.95;;;18.50;99.90;;;;;;6244632;23;20016;-47
2023/08/25 05:12:07;;;;;;;42.95;36.45;;;18.50;99.90;;;;;;6244946;23;20012;-45
2023/08/25 05:14:32;;;;;;;42.07;37.77;;;18.60;99.90;;;;;;6245579;23;20019;-43
2023/08/25 05:16:58;;;;;;;41.90;34.92;;;18.60;99.90;;;;;;6246156;23;20012;-43
2023/08/25 05:19:24;;;;;;;40.58;35.25;;;18.60;99.90;;;;;;6217710;23;20448;-47
2023/08/25 05:21:49;;;;;;;40.15;35.78;;;18.70;99.90;;;;;;6245330;23;20076;-43
2023/08/25 05:24:24;;;;;;;41.58;37.13;;;18.70;99.90;;;;;;6246968;23;20008;-45
2023/08/25 05:26:51;;;;;;;42.17;37.58;;;18.80;99.90;;;;;;6219091;23;20027;-44
2023/08/25 05:29:18;;;;;;;40.67;36.27;;;18.80;99.90;;;;;;6246437;23;20012;-46
2023/08/25 05:31:44;;;;;;;47.05;38.85;;;18.90;99.90;;;;;;6245631;23;20013;-44
2023/08/25 05:34:10;;;;;;;42.25;35.47;;;18.80;99.90;;;;;;6245432;23;20016;-43
2023/08/25 05:36:35;;;;;;;43.83;37.25;;;19.00;99.90;;;;;;6217817;23;20024;-43
2023/08/25 05:39:01;;;;;;;44.25;36.78;;;19.00;99.90;;;;;;6246361;23;20036;-45
2023/08/25 05:41:28;;;;;;;46.97;37.83;;;19.00;99.90;;;;;;6245142;22;20016;-44
2023/08/25 05:43:54;;;;;;;46.83;37.80;;;19.00;99.90;;;;;;6242908;22;20337;-44
2023/08/25 05:46:19;;;;;;;55.63;38.38;;;19.00;99.90;;;;;;6245006;22;20070;-43
2023/08/25 05:48:45;;;;;;;45.42;38.50;;;19.20;99.90;;;;;;6246386;23;20087;-45
2023/08/25 05:51:11;;;;;;;44.65;37.83;;;19.20;99.90;;;;;;6244579;23;20016;-44
2023/08/25 05:53:36;;;;;;;47.00;39.38;;;19.30;99.90;;;;;;6244387;23;20021;-46
2023/08/25 05:56:02;;;;;;;46.88;38.20;;;19.40;99.90;;;;;;6246330;23;20505;-46
2023/08/25 05:58:28;;;;;;;42.47;37.60;;;19.40;99.90;;;;;;6246372;23;20016;-45
2023/08/25 06:00:54;;;;;;;43.40;38.88;;;19.50;99.90;;;;;;6246338;23;20024;-45
2023/08/25 06:03:20;;;;;;;44.50;39.75;;;19.60;99.90;;;;;;6246237;22;20012;-45
2023/08/25 06:05:51;;;;;;;40.60;36.28;;;19.70;99.90;;;;;;6245452;23;20012;-44
2023/08/25 06:08:17;;;;;;;41.92;37.45;;;19.90;99.90;;;;;;6246089;23;20008;-43
2023/08/25 06:10:43;;;;;;;40.75;35.22;;;19.90;99.90;;;;;;6245381;23;20012;-45
2023/08/25 06:13:09;;;;;;;42.38;36.70;;;20.00;99.90;;;;;;6245457;23;20067;-44
2023/08/25 06:15:34;;;;;;;37.05;33.05;;;20.10;99.90;;;;;;6245859;23;20091;-43
2023/08/25 06:18:00;;;;;;;40.53;34.90;;;20.20;99.90;;;;;;6245962;23;20022;-44
2023/08/25 06:20:26;;;;;;;38.55;34.60;;;20.10;99.90;;;;;;6245607;23;20019;-45
2023/08/25 06:22:52;;;;;;;39.15;34.95;;;20.20;99.90;;;;;;6244559;23;20020;-44
2023/08/25 06:25:18;;;;;;;38.38;34.38;;;20.30;99.90;;;;;;6247709;23;20444;-46
2023/08/25 06:27:43;;;;;;;37.03;33.08;;;20.20;99.90;;;;;;6244609;23;20012;-44
2023/08/25 06:30:10;;;;;;;36.50;32.60;;;20.30;99.90;;;;;;6244985;23;20020;-46
2023/08/25 06:32:36;;;;;;;37.95;34.13;;;20.20;99.90;;;;;;6244385;23;20491;-45
2023/08/25 06:35:02;;;;;;;37.40;33.70;;;20.30;99.90;;;;;;6245059;22;20016;-46
2023/08/25 06:37:27;;;;;;;38.58;34.60;;;20.30;99.90;;;;;;6244428;22;20083;-44
2023/08/25 06:39:53;;;;;;;39.65;35.55;;;20.30;99.90;;;;;;6246007;23;20009;-46
2023/08/25 06:42:19;;;;;;;37.42;33.75;;;20.30;99.90;;;;;;6243715;23;20024;-43
2023/08/25 06:44:44;;;;;;;38.58;34.60;;;20.30;99.90;;;;;;6245223;22;20012;-44
2023/08/25 06:47:10;;;;;;;37.95;34.10;;;20.40;99.90;;;;;;6244379;23;20020;-43
2023/08/25 06:49:36;;;;;;;34.95;31.40;;;20.40;99.90;;;;;;6241607;23;20012;-45
2023/08/25 06:52:02;;;;;;;36.88;33.00;;;20.50;99.90;;;;;;6242585;22;20016;-45
2023/08/25 06:54:28;;;;;;;38.20;34.20;;;20.60;99.90;;;;;;6243752;23;20028;-43
2023/08/25 06:56:53;;;;;;;36.45;32.90;;;20.70;99.90;;;;;;6244164;23;20022;-44
2023/08/25 06:59:19;;;;;;;36.20;32.40;;;20.90;99.90;;;;;;6245682;23;20024;-43
2023/08/25 07:01:45;;;;;;;38.17;34.05;;;21.10;99.90;;;;;;6244667;23;20511;-42
2023/08/25 07:04:10;;;;;;;37.88;33.85;;;21.20;99.90;;;;;;6245679;23;20087;-44
2023/08/25 07:06:37;;;;;;;37.30;33.45;;;21.30;99.90;;;;;;6245752;23;20012;-44
2023/08/25 07:09:03;;;;;;;38.38;34.30;;;21.20;99.90;;;;;;6243283;23;20062;-43
2023/08/25 07:11:29;;;;;;;36.45;32.80;;;21.30;99.90;;;;;;6245213;22;20457;-43
2023/08/25 07:13:54;;;;;;;38.00;33.63;;;21.30;99.90;;;;;;6245226;23;20012;-44
2023/08/25 07:16:20;;;;;;;36.20;32.40;;;21.30;99.90;;;;;;6245493;23;20399;-45
2023/08/25 07:18:46;;;;;;;37.80;33.80;;;21.20;99.90;;;;;;6244956;23;20310;-44
2023/08/25 07:21:11;;;;;;;35.20;31.50;;;21.20;99.90;;;;;;6245706;23;20016;-45
2023/08/25 07:23:37;;;;;;;37.30;33.60;;;21.30;99.90;;;;;;6245008;23;20012;-46
2023/08/25 07:26:03;;;;;;;35.28;31.77;;;21.40;99.90;;;;;;6246267;23;20083;-47
2023/08/25 07:28:30;;;;;;;38.20;34.13;;;21.50;99.90;;;;;;6244796;23;20044;-46
2023/08/25 07:30:56;;;;;;;35.83;32.30;;;21.50;99.90;;;;;;6245177;23;20087;-47
2023/08/25 07:33:23;;;;;;;33.97;30.67;;;21.50;99.90;;;;;;6244279;23;20077;-46
2023/08/25 07:35:48;;;;;;;34.20;30.70;;;21.60;99.90;;;;;;6244599;23;20020;-44
2023/08/25 07:38:14;;;;;;;34.53;31.02;;;21.70;99.90;;;;;;6216714;23;20352;-47
2023/08/25 07:40:40;;;;;;;33.45;30.05;;;22.00;99.90;;;;;;6244837;23;20013;-43
2023/08/25 07:43:06;;;;;;;35.80;32.20;;;22.00;99.90;;;;;;6242745;23;20026;-44
2023/08/25 07:45:32;;;;;;;34.67;31.27;;;22.20;99.90;;;;;;6244735;23;20054;-44
2023/08/25 07:47:59;;;;;;;32.10;28.83;;;22.30;99.90;;;;;;6243767;23;20432;-47
2023/08/25 07:50:27;;;;;;;33.25;30.08;;;22.30;99.90;;;;;;6216868;23;20020;-45
2023/08/25 07:52:53;;;;;;;34.90;31.30;;;22.30;99.90;;;;;;6216195;23;20341;-44
2023/08/25 07:55:19;;;;;;;30.65;27.45;;;22.30;99.90;;;;;;6243490;23;20016;-44
2023/08/25 07:57:46;;;;;;;30.35;27.35;;;22.20;99.90;;;;;;6245080;23;20024;-45
2023/08/25 08:00:15;;;;;;;30.67;27.75;;;22.00;99.90;;;;;;6246696;23;20016;-44
2023/08/25 08:02:45;;;;;;;31.55;28.17;;;21.90;99.90;;;;;;6245830;23;20111;-43
2023/08/25 08:05:11;;;;;;;32.40;29.08;;;21.90;99.90;;;;;;6247357;23;20020;-43
2023/08/25 08:07:38;;;;;;;36.42;32.75;;;21.70;99.90;;;;;;6246746;23;20008;-42
2023/08/25 08:10:05;;;;;;;35.13;31.42;;;21.90;99.90;;;;;;6246698;23;20153;-42
2023/08/25 08:12:31;;;;;;;32.22;29.13;;;22.00;99.90;;;;;;6245140;23;20441;-44
2023/08/25 08:14:57;;;;;;;32.67;28.83;;;21.90;99.90;;;;;;6246616;23;20012;-43
2023/08/25 08:17:23;;;;;;;31.92;28.77;;;22.00;99.90;;;;;;6245717;23;20035;-45
2023/08/25 08:19:48;;;;;;;31.38;28.20;;;21.90;99.90;;;;;;6245607;23;20020;-46
2023/08/25 08:22:15;;;;;;;30.33;27.42;;;21.90;99.90;;;;;;6245764;23;20039;-45
2023/08/25 08:24:50;;;;;;;30.65;27.60;;;22.00;99.90;;;;;;6247664;23;20514;-44
2023/08/25 08:27:17;;;;;;;31.50;28.33;;;21.90;99.90;;;;;;6246683;23;20016;-45
2023/08/25 08:29:44;;;;;;;32.42;29.17;;;21.90;99.90;;;;;;6246762;23;20008;-44
2023/08/25 08:32:09;;;;;;;33.90;30.50;;;21.90;99.90;;;;;;6244734;23;20043;-42
2023/08/25 08:34:36;;;;;;;33.95;30.63;;;21.80;99.90;;;;;;6244680;23;20032;-47
2023/08/25 08:37:05;;;;;;;34.30;30.75;;;21.90;99.90;;;;;;6243557;23;20067;-44
2023/08/25 08:39:37;;;;;;;33.97;30.48;;;21.90;99.90;;;;;;6244429;23;20066;-45
2023/08/25 08:42:03;;;;;;;32.17;29.08;;;21.80;99.90;;;;;;6242400;23;20078;-47
2023/08/25 08:44:34;;;;;;;32.08;28.42;;;21.70;99.90;;;;;;6244339;23;20039;-46
2023/08/25 08:47:03;;;;;;;32.40;29.15;;;21.60;99.90;;;;;;6244573;23;20150;-43
2023/08/25 08:49:30;;;;;;;31.38;28.27;;;21.60;99.90;;;;;;6244488;23;20019;-45
2023/08/25 08:51:58;;;;;;;32.58;29.42;;;21.60;99.90;;;;;;6244125;23;20051;-45
2023/08/25 08:54:27;;;;;;;31.02;27.85;;;21.70;99.90;;;;;;6244576;23;20051;-44
2023/08/25 08:56:53;;;;;;;30.88;27.60;;;21.70;99.90;;;;;;6217761;23;20008;-47
2023/08/25 08:59:19;;;;;;;29.83;26.70;;;21.70;99.90;;;;;;6243619;23;20385;-44
2023/08/25 09:01:45;;;;;;;32.03;29.00;;;21.80;99.90;;;;;;6243070;23;20016;-44
2023/08/25 09:04:11;;;;;;;31.95;28.83;;;21.80;99.90;;;;;;6243514;23;20123;-45
2023/08/25 09:06:38;;;;;;;32.35;29.10;;;21.80;99.90;;;;;;6243750;23;20040;-45
2023/08/25 09:09:08;;;;;;;33.17;29.67;;;21.80;99.90;;;;;;6243696;23;20016;-44
2023/08/25 09:11:35;;;;;;;31.50;28.50;;;21.90;99.90;;;;;;6243966;23;20395;-47
2023/08/25 09:14:04;;;;;;;29.70;26.73;;;21.90;99.90;;;;;;6215255;23;20488;-46
2023/08/25 09:16:35;;;;;;;31.67;28.38;;;21.90;99.90;;;;;;6242462;23;20012;-45
2023/08/25 09:19:05;;;;;;;31.63;28.30;;;21.90;99.90;;;;;;6242688;23;20027;-44
2023/08/25 09:21:31;;;;;;;33.95;30.45;;;21.90;99.90;;;;;;6241811;23;20027;-44
2023/08/25 09:24:02;;;;;;;31.00;27.80;;;21.90;99.90;;;;;;6241747;23;20040;-44
2023/08/25 09:26:36;;;;;;;31.25;28.20;;;22.00;99.90;;;;;;6246942;23;20016;-44
2023/08/25 09:29:01;;;;;;;31.02;27.92;;;21.90;99.90;;;;;;6244016;23;20016;-44
2023/08/25 09:31:28;;;;;;;32.58;29.25;;;21.90;99.90;;;;;;6243486;23;20325;-47
2023/08/25 09:34:05;;;;;;;31.27;28.40;;;22.00;99.90;;;;;;6243258;23;20066;-45
2023/08/25 09:36:32;;;;;;;31.98;28.73;;;21.80;99.90;;;;;;6242402;23;20024;-46
2023/08/25 09:38:58;;;;;;;31.30;28.10;;;21.90;99.90;;;;;;6243351;23;20328;-47
2023/08/25 09:41:25;;;;;;;29.17;26.08;;;21.80;99.90;;;;;;6242265;23;20020;-49
2023/08/25 09:44:01;;;;;;;28.58;25.90;;;21.70;99.90;;;;;;6240808;23;20526;-49
2023/08/25 09:46:31;;;;;;;28.67;25.88;;;21.70;99.90;;;;;;6242374;23;20323;-44
2023/08/25 09:49:04;;;;;;;28.48;25.77;;;21.60;99.90;;;;;;6242327;23;20376;-47
2023/08/25 09:51:41;;;;;;;28.65;25.95;;;21.60;99.90;;;;;;6244672;23;20020;-45
2023/08/25 09:54:17;;;;;;;39.78;29.85;;;21.50;99.90;;;;;;6216181;23;20440;-45
2023/08/25 09:56:45;;;;;;;48.47;34.10;;;21.30;99.90;;;;;;6243397;22;20457;-45
2023/08/25 09:59:15;;;;;;;36.40;31.35;;;21.20;99.90;;;;;;6245382;22;20394;-44
2023/08/25 10:01:45;;;;;;;34.03;30.40;;;21.20;99.90;;;;;;6243980;22;20012;-45
2023/08/25 10:04:12;;;;;;;27.67;24.85;;;21.10;99.90;;;;;;6243637;22;20017;-45
2023/08/25 10:06:40;;;;;;;26.63;23.77;;;21.10;99.90;;;;;;6243267;22;20016;-46
2023/08/25 10:09:07;;;;;;;27.35;24.40;;;21.00;99.90;;;;;;6242270;22;20098;-44
2023/08/25 10:11:45;;;;;;;27.63;25.00;;;21.20;99.90;;;;;;6243562;22;20317;-44
2023/08/25 10:14:12;;;;;;;27.50;24.50;;;21.30;99.90;;;;;;6242882;22;20051;-44
2023/08/25 10:16:50;;;;;;;28.52;25.67;;;21.30;99.90;;;;;;6243881;22;20500;-46
2023/08/25 10:19:24;;;;;;;26.13;23.52;;;21.30;99.90;;;;;;6244089;22;20515;-44
2023/08/25 10:21:51;;;;;;;26.80;24.15;;;21.40;99.90;;;;;;6243700;22;20015;-45
2023/08/25 10:24:24;;;;;;;27.40;24.70;;;21.50;99.90;;;;;;6244583;22;20027;-46
2023/08/25 10:26:51;;;;;;;25.20;22.63;;;21.60;99.90;;;;;;6246890;22;20023;-45
2023/08/25 10:29:20;;;;;;;23.15;20.73;;;21.80;99.90;;;;;;6241046;23;20012;-44
2023/08/25 10:32:04;;;;;;;23.60;21.30;;;21.80;99.90;;;;;;6242528;22;20580;-44
2023/08/25 10:34:38;;;;;;;24.58;22.20;;;21.80;99.90;;;;;;6244519;22;20430;-46
2023/08/25 10:37:11;;;;;;;25.63;23.10;;;21.80;99.90;;;;;;6245337;22;20013;-45
2023/08/25 10:39:57;;;;;;;26.42;23.83;;;21.70;99.90;;;;;;6244021;22;20016;-45
2023/08/25 10:42:27;;;;;;;23.92;21.63;;;21.70;99.90;;;;;;6240657;23;20020;-43
2023/08/25 10:45:01;;;;;;;20.52;18.55;;;21.60;99.90;;;;;;6215294;23;20448;-45
2023/08/25 10:47:27;;;;;;;21.10;19.00;;;21.50;99.90;;;;;;6242959;22;20016;-43
2023/08/25 10:49:54;;;;;;;20.10;18.20;;;21.50;99.90;;;;;;6241081;23;20020;-44
2023/08/25 10:52:20;;;;;;;20.63;17.83;;;21.50;99.90;;;;;;6242387;22;20023;-43
2023/08/25 10:54:47;;;;;;;17.85;16.05;;;21.50;99.90;;;;;;6241202;22;20395;-43
2023/08/25 10:57:28;;;;;;;18.30;16.50;;;21.50;99.90;;;;;;6243498;22;20043;-44
2023/08/25 10:59:55;;;;;;;18.08;16.45;;;21.50;99.90;;;;;;6242731;23;20243;-45
2023/08/25 11:02:37;;;;;;;15.38;13.98;;;21.50;99.90;;;;;;6242783;22;20028;-46
2023/08/25 11:05:37;;;;;;;15.88;14.40;;;21.70;99.90;;;;;;6241662;23;20027;-44
2023/08/25 11:08:04;;;;;;;17.02;15.32;;;21.80;99.90;;;;;;6243650;22;20030;-44
2023/08/25 11:10:35;;;;;;;16.00;14.60;;;21.70;99.90;;;;;;6242878;22;20016;-43
2023/08/25 11:13:08;;;;;;;16.67;15.02;;;21.60;99.90;;;;;;6244056;22;20347;-44
2023/08/25 11:15:37;;;;;;;17.15;15.55;;;21.50;99.90;;;;;;6242163;23;20047;-43
2023/08/25 11:18:04;;;;;;;17.05;15.35;;;21.30;99.90;;;;;;6243412;22;20305;-44
2023/08/25 11:20:30;;;;;;;17.33;15.52;;;21.30;99.90;;;;;;6242861;22;20111;-44
2023/08/25 11:22:58;;;;;;;16.40;14.85;;;21.20;99.90;;;;;;6242987;23;20106;-43
2023/08/25 11:25:25;;;;;;;17.52;15.35;;;21.10;99.90;;;;;;6243049;22;20022;-42
2023/08/25 11:27:55;;;;;;;16.98;15.27;;;21.00;99.90;;;;;;6243591;22;20480;-45
2023/08/25 11:30:21;;;;;;;16.80;15.07;;;20.90;99.90;;;;;;6242683;22;20008;-44
2023/08/25 11:32:48;;;;;;;14.80;13.32;;;20.90;99.90;;;;;;6245043;22;20039;-44
2023/08/25 11:35:14;;;;;;;14.05;12.68;;;20.90;99.90;;;;;;6245074;22;20069;-43
2023/08/25 11:37:42;;;;;;;13.18;11.93;;;20.60;99.90;;;;;;6245188;22;20020;-43
2023/08/25 11:40:14;;;;;;;13.18;11.30;;;20.60;99.90;;;;;;6246447;22;20012;-45
2023/08/25 11:42:41;;;;;;;13.50;11.38;;;20.70;99.90;;;;;;6246752;22;20024;-44
2023/08/25 11:45:08;;;;;;;12.10;10.93;;;20.60;99.90;;;;;;6247181;23;20024;-45
2023/08/25 11:47:34;;;;;;;12.45;11.32;;;20.60;99.90;;;;;;6246238;22;20051;-47
2023/08/25 11:50:04;;;;;;;10.60;9.50;;;20.70;99.90;;;;;;6245313;23;20027;-44
2023/08/25 11:52:34;;;;;;;11.25;10.05;;;20.80;99.90;;;;;;6244963;23;20052;-44
2023/08/25 11:55:00;;;;;;;10.68;9.68;;;20.70;99.90;;;;;;6246468;23;20021;-42
2023/08/25 11:57:38;;;;;;;11.05;10.10;;;20.80;99.90;;;;;;6245463;23;20071;-44
2023/08/25 12:00:08;;;;;;;10.48;9.57;;;20.80;99.90;;;;;;6218405;23;20115;-43
2023/08/25 12:02:34;;;;;;;10.70;9.80;;;20.90;99.90;;;;;;6244441;23;20429;-42
2023/08/25 12:05:03;;;;;;;11.77;10.77;;;20.90;99.90;;;;;;6244926;23;20023;-43
2023/08/25 12:07:30;;;;;;;12.60;11.50;;;21.10;99.90;;;;;;6244430;23;20035;-43
2023/08/25 12:09:58;;;;;;;13.32;12.13;;;21.30;99.90;;;;;;6244513;23;20066;-42
2023/08/25 12:12:30;;;;;;;;;;;21.30;99.90;;;;;;6245234;23;20329;-44
2023/08/25 12:14:56;;;;;;;16.58;15.10;;;21.20;99.90;;;;;;6243613;23;19916;-43
2023/08/25 12:17:27;;;;;;;19.65;17.65;;;21.10;99.90;;;;;;6243949;23;20379;-43
2023/08/25 12:19:53;;;;;;;19.20;17.45;;;21.00;99.90;;;;;;6244210;23;20051;-43
2023/08/25 12:22:19;;;;;;;20.60;18.87;;;21.00;99.90;;;;;;6243603;23;20018;-46
2023/08/25 12:24:46;;;;;;;19.23;17.52;;;20.90;99.90;;;;;;6244988;23;20087;-40
2023/08/25 12:29:47;;;;;;;21.27;19.38;;;20.90;99.90;;;;;;6241081;22;20017;-42
2023/08/25 12:32:13;;;;;;;19.92;18.30;;;21.00;99.90;;;;;;6243704;23;20012;-45